sensor_id;sensor_type;location;lat;lon;timestamp;P1;durP1;ratioP1;P2;durP2;ratioP2
60006;SDS011;45863;50.336;3.536;2023-03-13T00:01:16;16.63;;;8.20;;
60006;SDS011;45863;50.336;3.536;2023-03-13T00:03:42;13.27;;;4.85;;
60006;SDS011;45863;50.336;3.536;2023-03-13T00:06:08;10.82;;;5.80;;
60006;SDS011;45863;50.336;3.536;2023-03-13T00:08:34;20.52;;;6.55;;
60006;SDS011;45863;50.336;3.536;2023-03-13T00:11:06;10.90;;;4.60;;
60006;SDS011;45863;50.336;3.536;2023-03-13T00:13:31;8.43;;;3.47;;
60006;SDS011;45863;50.336;3.536;2023-03-13T00:16:00;14.25;;;6.30;;
60006;SDS011;45863;50.336;3.536;2023-03-13T00:18:25;11.93;;;5.35;;
60006;SDS011;45863;50.336;3.536;2023-03-13T00:20:56;14.57;;;6.13;;
60006;SDS011;45863;50.336;3.536;2023-03-13T00:23:21;17.20;;;5.75;;
60006;SDS011;45863;50.336;3.536;2023-03-13T00:25:47;12.40;;;5.20;;
60006;SDS011;45863;50.336;3.536;2023-03-13T00:28:12;11.02;;;4.95;;
60006;SDS011;45863;50.336;3.536;2023-03-13T00:30:37;12.93;;;6.10;;
60006;SDS011;45863;50.336;3.536;2023-03-13T00:33:02;15.33;;;5.17;;
60006;SDS011;45863;50.336;3.536;2023-03-13T00:35:27;11.32;;;5.78;;
60006;SDS011;45863;50.336;3.536;2023-03-13T00:37:53;10.60;;;5.40;;
60006;SDS011;45863;50.336;3.536;2023-03-13T00:40:18;11.60;;;4.30;;
60006;SDS011;45863;50.336;3.536;2023-03-13T00:42:44;12.57;;;5.70;;
60006;SDS011;45863;50.336;3.536;2023-03-13T00:45:09;11.60;;;6.87;;
60006;SDS011;45863;50.336;3.536;2023-03-13T00:47:34;9.13;;;4.50;;
60006;SDS011;45863;50.336;3.536;2023-03-13T00:49:59;13.68;;;5.07;;
60006;SDS011;45863;50.336;3.536;2023-03-13T00:52:25;10.13;;;4.20;;
60006;SDS011;45863;50.336;3.536;2023-03-13T00:54:52;11.43;;;5.38;;
60006;SDS011;45863;50.336;3.536;2023-03-13T00:57:17;14.45;;;5.38;;
60006;SDS011;45863;50.336;3.536;2023-03-13T00:59:42;11.30;;;4.97;;
60006;SDS011;45863;50.336;3.536;2023-03-13T01:02:07;12.85;;;4.50;;
60006;SDS011;45863;50.336;3.536;2023-03-13T01:04:33;13.95;;;4.57;;
60006;SDS011;45863;50.336;3.536;2023-03-13T01:06:58;10.70;;;5.20;;
60006;SDS011;45863;50.336;3.536;2023-03-13T01:09:23;12.93;;;5.63;;
60006;SDS011;45863;50.336;3.536;2023-03-13T01:11:48;11.77;;;5.75;;
60006;SDS011;45863;50.336;3.536;2023-03-13T01:14:15;7.50;;;3.20;;
60006;SDS011;45863;50.336;3.536;2023-03-13T01:16:40;12.73;;;4.68;;
60006;SDS011;45863;50.336;3.536;2023-03-13T01:19:07;9.73;;;4.95;;
60006;SDS011;45863;50.336;3.536;2023-03-13T01:21:33;8.65;;;4.80;;
60006;SDS011;45863;50.336;3.536;2023-03-13T01:23:59;7.85;;;4.97;;
60006;SDS011;45863;50.336;3.536;2023-03-13T01:26:24;7.53;;;4.20;;
60006;SDS011;45863;50.336;3.536;2023-03-13T01:28:49;11.10;;;5.63;;
60006;SDS011;45863;50.336;3.536;2023-03-13T01:33:41;9.25;;;4.18;;
60006;SDS011;45863;50.336;3.536;2023-03-13T01:36:06;12.38;;;5.30;;
60006;SDS011;45863;50.336;3.536;2023-03-13T01:38:32;10.90;;;4.93;;
60006;SDS011;45863;50.336;3.536;2023-03-13T01:40:58;10.13;;;4.05;;
60006;SDS011;45863;50.336;3.536;2023-03-13T01:43:24;9.50;;;4.73;;
60006;SDS011;45863;50.336;3.536;2023-03-13T01:45:59;11.15;;;4.45;;
60006;SDS011;45863;50.336;3.536;2023-03-13T01:50:54;8.93;;;4.22;;
60006;SDS011;45863;50.336;3.536;2023-03-13T01:53:20;9.73;;;4.82;;
60006;SDS011;45863;50.336;3.536;2023-03-13T01:55:46;6.38;;;3.13;;
60006;SDS011;45863;50.336;3.536;2023-03-13T01:58:11;9.90;;;4.60;;
60006;SDS011;45863;50.336;3.536;2023-03-13T02:00:37;9.48;;;5.07;;
60006;SDS011;45863;50.336;3.536;2023-03-13T02:03:04;11.02;;;5.25;;
60006;SDS011;45863;50.336;3.536;2023-03-13T02:05:30;8.05;;;4.20;;
60006;SDS011;45863;50.336;3.536;2023-03-13T02:07:57;8.38;;;4.25;;
60006;SDS011;45863;50.336;3.536;2023-03-13T02:10:23;10.02;;;5.35;;
60006;SDS011;45863;50.336;3.536;2023-03-13T02:12:49;10.10;;;4.15;;
60006;SDS011;45863;50.336;3.536;2023-03-13T02:15:17;9.85;;;4.07;;
60006;SDS011;45863;50.336;3.536;2023-03-13T02:17:43;5.07;;;2.72;;
60006;SDS011;45863;50.336;3.536;2023-03-13T02:20:09;8.02;;;3.53;;
60006;SDS011;45863;50.336;3.536;2023-03-13T02:27:25;8.77;;;4.20;;
60006;SDS011;45863;50.336;3.536;2023-03-13T02:29:50;8.52;;;4.03;;
60006;SDS011;45863;50.336;3.536;2023-03-13T02:32:16;8.95;;;4.15;;
60006;SDS011;45863;50.336;3.536;2023-03-13T02:34:41;8.05;;;4.22;;
60006;SDS011;45863;50.336;3.536;2023-03-13T02:37:07;15.15;;;4.55;;
60006;SDS011;45863;50.336;3.536;2023-03-13T02:39:35;10.18;;;3.70;;
60006;SDS011;45863;50.336;3.536;2023-03-13T02:42:01;9.93;;;4.53;;
60006;SDS011;45863;50.336;3.536;2023-03-13T02:44:27;11.20;;;4.13;;
60006;SDS011;45863;50.336;3.536;2023-03-13T02:46:52;10.30;;;3.72;;
60006;SDS011;45863;50.336;3.536;2023-03-13T02:49:27;8.45;;;3.30;;
60006;SDS011;45863;50.336;3.536;2023-03-13T02:51:53;7.47;;;3.88;;
60006;SDS011;45863;50.336;3.536;2023-03-13T02:54:21;7.07;;;3.35;;
60006;SDS011;45863;50.336;3.536;2023-03-13T02:56:47;7.90;;;4.40;;
60006;SDS011;45863;50.336;3.536;2023-03-13T02:59:15;8.40;;;4.70;;
60006;SDS011;45863;50.336;3.536;2023-03-13T03:01:40;10.07;;;3.95;;
60006;SDS011;45863;50.336;3.536;2023-03-13T03:04:05;6.93;;;3.13;;
60006;SDS011;45863;50.336;3.536;2023-03-13T03:06:30;8.27;;;3.97;;
60006;SDS011;45863;50.336;3.536;2023-03-13T03:08:56;7.78;;;2.63;;
60006;SDS011;45863;50.336;3.536;2023-03-13T03:11:22;4.90;;;2.47;;
60006;SDS011;45863;50.336;3.536;2023-03-13T03:13:47;6.82;;;3.00;;
60006;SDS011;45863;50.336;3.536;2023-03-13T03:16:12;9.37;;;2.73;;
60006;SDS011;45863;50.336;3.536;2023-03-13T03:18:44;9.38;;;3.22;;
60006;SDS011;45863;50.336;3.536;2023-03-13T03:21:10;6.93;;;3.47;;
60006;SDS011;45863;50.336;3.536;2023-03-13T03:23:35;6.53;;;2.47;;
60006;SDS011;45863;50.336;3.536;2023-03-13T03:26:01;6.70;;;3.05;;
60006;SDS011;45863;50.336;3.536;2023-03-13T03:28:27;6.20;;;2.72;;
60006;SDS011;45863;50.336;3.536;2023-03-13T03:30:52;7.50;;;3.15;;
60006;SDS011;45863;50.336;3.536;2023-03-13T03:33:18;9.68;;;3.13;;
60006;SDS011;45863;50.336;3.536;2023-03-13T03:35:44;8.55;;;3.05;;
60006;SDS011;45863;50.336;3.536;2023-03-13T03:38:09;6.32;;;2.88;;
60006;SDS011;45863;50.336;3.536;2023-03-13T03:40:35;7.63;;;3.03;;
60006;SDS011;45863;50.336;3.536;2023-03-13T03:43:00;6.55;;;3.00;;
60006;SDS011;45863;50.336;3.536;2023-03-13T03:45:25;9.57;;;3.45;;
60006;SDS011;45863;50.336;3.536;2023-03-13T03:47:50;6.63;;;2.33;;
60006;SDS011;45863;50.336;3.536;2023-03-13T03:50:15;7.47;;;2.60;;
60006;SDS011;45863;50.336;3.536;2023-03-13T03:52:41;7.38;;;2.88;;
60006;SDS011;45863;50.336;3.536;2023-03-13T03:55:06;10.10;;;2.77;;
60006;SDS011;45863;50.336;3.536;2023-03-13T03:57:31;9.23;;;2.88;;
60006;SDS011;45863;50.336;3.536;2023-03-13T03:59:57;6.93;;;2.90;;
60006;SDS011;45863;50.336;3.536;2023-03-13T04:02:22;5.13;;;2.37;;
60006;SDS011;45863;50.336;3.536;2023-03-13T04:04:47;5.10;;;2.50;;
60006;SDS011;45863;50.336;3.536;2023-03-13T04:07:12;7.43;;;2.60;;
60006;SDS011;45863;50.336;3.536;2023-03-13T04:09:37;7.65;;;2.75;;
60006;SDS011;45863;50.336;3.536;2023-03-13T04:12:03;8.88;;;2.72;;
60006;SDS011;45863;50.336;3.536;2023-03-13T04:14:28;7.22;;;3.30;;
60006;SDS011;45863;50.336;3.536;2023-03-13T04:16:53;9.82;;;2.67;;
60006;SDS011;45863;50.336;3.536;2023-03-13T04:19:18;6.97;;;2.53;;
60006;SDS011;45863;50.336;3.536;2023-03-13T04:21:43;4.33;;;1.90;;
60006;SDS011;45863;50.336;3.536;2023-03-13T04:24:09;9.98;;;3.00;;
60006;SDS011;45863;50.336;3.536;2023-03-13T04:26:34;9.15;;;2.38;;
60006;SDS011;45863;50.336;3.536;2023-03-13T04:28:59;11.43;;;3.80;;
60006;SDS011;45863;50.336;3.536;2023-03-13T04:31:24;8.93;;;3.42;;
60006;SDS011;45863;50.336;3.536;2023-03-13T04:33:49;10.18;;;4.03;;
60006;SDS011;45863;50.336;3.536;2023-03-13T04:36:15;7.37;;;3.00;;
60006;SDS011;45863;50.336;3.536;2023-03-13T04:38:40;9.07;;;2.97;;
60006;SDS011;45863;50.336;3.536;2023-03-13T04:41:05;13.02;;;3.75;;
60006;SDS011;45863;50.336;3.536;2023-03-13T04:43:30;6.93;;;2.45;;
60006;SDS011;45863;50.336;3.536;2023-03-13T04:45:56;12.67;;;3.00;;
60006;SDS011;45863;50.336;3.536;2023-03-13T04:48:21;8.77;;;2.70;;
60006;SDS011;45863;50.336;3.536;2023-03-13T04:50:46;6.57;;;2.90;;
60006;SDS011;45863;50.336;3.536;2023-03-13T04:53:12;10.32;;;4.22;;
60006;SDS011;45863;50.336;3.536;2023-03-13T04:55:38;9.60;;;3.38;;
60006;SDS011;45863;50.336;3.536;2023-03-13T04:58:03;13.57;;;3.65;;
60006;SDS011;45863;50.336;3.536;2023-03-13T05:00:28;10.00;;;3.67;;
60006;SDS011;45863;50.336;3.536;2023-03-13T05:02:53;10.60;;;3.13;;
60006;SDS011;45863;50.336;3.536;2023-03-13T05:05:18;9.32;;;3.13;;
60006;SDS011;45863;50.336;3.536;2023-03-13T05:07:44;11.50;;;3.65;;
60006;SDS011;45863;50.336;3.536;2023-03-13T05:10:09;11.37;;;3.33;;
60006;SDS011;45863;50.336;3.536;2023-03-13T05:12:34;12.40;;;3.50;;
60006;SDS011;45863;50.336;3.536;2023-03-13T05:14:59;8.95;;;2.72;;
60006;SDS011;45863;50.336;3.536;2023-03-13T05:17:25;7.77;;;2.63;;
60006;SDS011;45863;50.336;3.536;2023-03-13T05:19:50;11.37;;;3.70;;
60006;SDS011;45863;50.336;3.536;2023-03-13T05:22:15;14.48;;;3.90;;
60006;SDS011;45863;50.336;3.536;2023-03-13T05:24:40;11.57;;;2.90;;
60006;SDS011;45863;50.336;3.536;2023-03-13T05:27:05;9.48;;;3.13;;
60006;SDS011;45863;50.336;3.536;2023-03-13T05:29:31;12.33;;;3.03;;
60006;SDS011;45863;50.336;3.536;2023-03-13T05:31:56;11.73;;;3.53;;
60006;SDS011;45863;50.336;3.536;2023-03-13T05:34:21;10.35;;;3.05;;
60006;SDS011;45863;50.336;3.536;2023-03-13T05:36:46;15.47;;;3.80;;
60006;SDS011;45863;50.336;3.536;2023-03-13T05:39:12;8.88;;;3.67;;
60006;SDS011;45863;50.336;3.536;2023-03-13T05:41:37;13.02;;;4.07;;
60006;SDS011;45863;50.336;3.536;2023-03-13T05:44:02;10.82;;;3.75;;
60006;SDS011;45863;50.336;3.536;2023-03-13T05:46:27;11.43;;;3.95;;
60006;SDS011;45863;50.336;3.536;2023-03-13T05:48:53;8.40;;;3.28;;
60006;SDS011;45863;50.336;3.536;2023-03-13T05:51:18;14.13;;;3.70;;
60006;SDS011;45863;50.336;3.536;2023-03-13T05:53:43;10.32;;;3.38;;
60006;SDS011;45863;50.336;3.536;2023-03-13T05:56:08;15.93;;;3.20;;
60006;SDS011;45863;50.336;3.536;2023-03-13T05:58:34;14.03;;;3.40;;
60006;SDS011;45863;50.336;3.536;2023-03-13T06:00:59;12.98;;;3.17;;
60006;SDS011;45863;50.336;3.536;2023-03-13T06:03:29;11.43;;;3.35;;
60006;SDS011;45863;50.336;3.536;2023-03-13T06:05:57;17.20;;;4.07;;
60006;SDS011;45863;50.336;3.536;2023-03-13T06:08:23;10.65;;;3.50;;
60006;SDS011;45863;50.336;3.536;2023-03-13T06:10:48;12.60;;;3.78;;
60006;SDS011;45863;50.336;3.536;2023-03-13T06:13:13;14.53;;;4.10;;
60006;SDS011;45863;50.336;3.536;2023-03-13T06:15:38;12.35;;;3.65;;
60006;SDS011;45863;50.336;3.536;2023-03-13T06:18:04;10.00;;;3.03;;
60006;SDS011;45863;50.336;3.536;2023-03-13T06:20:29;9.10;;;2.77;;
60006;SDS011;45863;50.336;3.536;2023-03-13T06:22:54;10.03;;;2.73;;
60006;SDS011;45863;50.336;3.536;2023-03-13T06:25:19;11.15;;;3.97;;
60006;SDS011;45863;50.336;3.536;2023-03-13T06:27:44;11.75;;;2.85;;
60006;SDS011;45863;50.336;3.536;2023-03-13T06:30:10;9.50;;;3.10;;
60006;SDS011;45863;50.336;3.536;2023-03-13T06:32:35;8.15;;;3.03;;
60006;SDS011;45863;50.336;3.536;2023-03-13T06:35:00;8.13;;;3.00;;
60006;SDS011;45863;50.336;3.536;2023-03-13T06:37:26;11.10;;;3.23;;
60006;SDS011;45863;50.336;3.536;2023-03-13T06:39:51;8.97;;;2.53;;
60006;SDS011;45863;50.336;3.536;2023-03-13T06:42:16;12.70;;;3.38;;
60006;SDS011;45863;50.336;3.536;2023-03-13T06:44:41;8.90;;;2.67;;
60006;SDS011;45863;50.336;3.536;2023-03-13T06:47:07;11.32;;;3.75;;
60006;SDS011;45863;50.336;3.536;2023-03-13T06:49:32;8.95;;;3.45;;
60006;SDS011;45863;50.336;3.536;2023-03-13T06:51:57;14.48;;;3.20;;
60006;SDS011;45863;50.336;3.536;2023-03-13T06:54:23;6.47;;;2.15;;
60006;SDS011;45863;50.336;3.536;2023-03-13T06:56:48;9.13;;;3.85;;
60006;SDS011;45863;50.336;3.536;2023-03-13T06:59:13;6.63;;;2.85;;
60006;SDS011;45863;50.336;3.536;2023-03-13T07:01:38;9.55;;;3.28;;
60006;SDS011;45863;50.336;3.536;2023-03-13T07:04:04;10.90;;;3.40;;
60006;SDS011;45863;50.336;3.536;2023-03-13T07:06:29;8.73;;;2.22;;
60006;SDS011;45863;50.336;3.536;2023-03-13T07:08:54;8.02;;;2.90;;
60006;SDS011;45863;50.336;3.536;2023-03-13T07:11:19;6.13;;;2.30;;
60006;SDS011;45863;50.336;3.536;2023-03-13T07:13:45;12.10;;;3.42;;
60006;SDS011;45863;50.336;3.536;2023-03-13T07:16:11;10.35;;;3.10;;
60006;SDS011;45863;50.336;3.536;2023-03-13T07:18:37;6.22;;;2.38;;
60006;SDS011;45863;50.336;3.536;2023-03-13T07:21:05;8.43;;;3.33;;
60006;SDS011;45863;50.336;3.536;2023-03-13T07:23:31;14.15;;;2.92;;
60006;SDS011;45863;50.336;3.536;2023-03-13T07:25:57;11.43;;;4.00;;
60006;SDS011;45863;50.336;3.536;2023-03-13T07:28:23;8.93;;;3.20;;
60006;SDS011;45863;50.336;3.536;2023-03-13T07:30:48;11.18;;;3.60;;
60006;SDS011;45863;50.336;3.536;2023-03-13T07:33:14;5.95;;;2.55;;
60006;SDS011;45863;50.336;3.536;2023-03-13T07:35:39;7.93;;;3.83;;
60006;SDS011;45863;50.336;3.536;2023-03-13T07:38:05;10.63;;;4.07;;
60006;SDS011;45863;50.336;3.536;2023-03-13T07:40:30;12.95;;;4.68;;
60006;SDS011;45863;50.336;3.536;2023-03-13T07:42:55;9.77;;;3.70;;
60006;SDS011;45863;50.336;3.536;2023-03-13T07:45:20;9.75;;;3.70;;
60006;SDS011;45863;50.336;3.536;2023-03-13T07:47:45;11.30;;;3.90;;
60006;SDS011;45863;50.336;3.536;2023-03-13T07:50:10;9.03;;;4.63;;
60006;SDS011;45863;50.336;3.536;2023-03-13T07:52:36;9.82;;;3.55;;
60006;SDS011;45863;50.336;3.536;2023-03-13T07:55:01;11.35;;;3.80;;
60006;SDS011;45863;50.336;3.536;2023-03-13T07:57:26;7.10;;;3.60;;
60006;SDS011;45863;50.336;3.536;2023-03-13T07:59:51;5.37;;;3.20;;
60006;SDS011;45863;50.336;3.536;2023-03-13T08:02:17;9.67;;;3.67;;
60006;SDS011;45863;50.336;3.536;2023-03-13T08:04:42;8.60;;;3.22;;
60006;SDS011;45863;50.336;3.536;2023-03-13T08:07:08;7.10;;;3.45;;
60006;SDS011;45863;50.336;3.536;2023-03-13T08:09:33;11.88;;;4.40;;
60006;SDS011;45863;50.336;3.536;2023-03-13T08:11:58;10.63;;;4.00;;
60006;SDS011;45863;50.336;3.536;2023-03-13T08:14:23;12.43;;;4.73;;
60006;SDS011;45863;50.336;3.536;2023-03-13T08:16:49;9.50;;;4.13;;
60006;SDS011;45863;50.336;3.536;2023-03-13T08:19:14;12.70;;;4.40;;
60006;SDS011;45863;50.336;3.536;2023-03-13T08:21:39;13.73;;;4.20;;
60006;SDS011;45863;50.336;3.536;2023-03-13T08:24:05;6.47;;;3.67;;
60006;SDS011;45863;50.336;3.536;2023-03-13T08:26:31;8.02;;;4.40;;
60006;SDS011;45863;50.336;3.536;2023-03-13T08:28:58;11.98;;;4.28;;
60006;SDS011;45863;50.336;3.536;2023-03-13T08:31:27;9.95;;;3.80;;
60006;SDS011;45863;50.336;3.536;2023-03-13T08:33:52;8.23;;;3.65;;
60006;SDS011;45863;50.336;3.536;2023-03-13T08:36:19;10.18;;;3.65;;
60006;SDS011;45863;50.336;3.536;2023-03-13T08:38:45;9.10;;;3.75;;
60006;SDS011;45863;50.336;3.536;2023-03-13T08:41:11;8.80;;;3.38;;
60006;SDS011;45863;50.336;3.536;2023-03-13T08:43:36;6.50;;;2.90;;
60006;SDS011;45863;50.336;3.536;2023-03-13T08:46:02;9.27;;;3.45;;
60006;SDS011;45863;50.336;3.536;2023-03-13T08:48:27;9.70;;;3.70;;
60006;SDS011;45863;50.336;3.536;2023-03-13T08:51:06;10.30;;;3.72;;
60006;SDS011;45863;50.336;3.536;2023-03-13T08:53:32;8.07;;;3.85;;
60006;SDS011;45863;50.336;3.536;2023-03-13T08:55:57;6.78;;;3.05;;
60006;SDS011;45863;50.336;3.536;2023-03-13T08:58:22;9.52;;;4.00;;
60006;SDS011;45863;50.336;3.536;2023-03-13T09:00:48;7.75;;;3.65;;
60006;SDS011;45863;50.336;3.536;2023-03-13T09:03:13;12.65;;;4.10;;
60006;SDS011;45863;50.336;3.536;2023-03-13T09:05:38;10.70;;;4.10;;
60006;SDS011;45863;50.336;3.536;2023-03-13T09:08:04;8.25;;;2.83;;
60006;SDS011;45863;50.336;3.536;2023-03-13T09:10:31;6.70;;;2.78;;
60006;SDS011;45863;50.336;3.536;2023-03-13T09:12:56;8.35;;;2.90;;
60006;SDS011;45863;50.336;3.536;2023-03-13T09:15:22;4.93;;;2.38;;
60006;SDS011;45863;50.336;3.536;2023-03-13T09:17:47;9.38;;;4.10;;
60006;SDS011;45863;50.336;3.536;2023-03-13T09:20:12;6.07;;;2.72;;
60006;SDS011;45863;50.336;3.536;2023-03-13T09:22:37;5.03;;;2.80;;
60006;SDS011;45863;50.336;3.536;2023-03-13T09:25:02;11.30;;;3.67;;
60006;SDS011;45863;50.336;3.536;2023-03-13T09:27:28;5.82;;;2.92;;
60006;SDS011;45863;50.336;3.536;2023-03-13T09:29:53;8.60;;;3.47;;
60006;SDS011;45863;50.336;3.536;2023-03-13T09:32:18;6.25;;;3.00;;
60006;SDS011;45863;50.336;3.536;2023-03-13T09:34:44;6.82;;;2.90;;
60006;SDS011;45863;50.336;3.536;2023-03-13T09:37:09;4.10;;;2.15;;
60006;SDS011;45863;50.336;3.536;2023-03-13T09:39:36;5.80;;;2.88;;
60006;SDS011;45863;50.336;3.536;2023-03-13T09:42:03;5.88;;;2.95;;
60006;SDS011;45863;50.336;3.536;2023-03-13T09:44:35;8.43;;;2.95;;
60006;SDS011;45863;50.336;3.536;2023-03-13T09:51:53;7.03;;;2.63;;
60006;SDS011;45863;50.336;3.536;2023-03-13T09:54:25;4.60;;;2.55;;
60006;SDS011;45863;50.336;3.536;2023-03-13T09:56:54;6.10;;;2.20;;
60006;SDS011;45863;50.336;3.536;2023-03-13T09:59:26;6.30;;;2.00;;
60006;SDS011;45863;50.336;3.536;2023-03-13T10:01:53;5.30;;;2.13;;
60006;SDS011;45863;50.336;3.536;2023-03-13T10:06:47;7.22;;;2.13;;
60006;SDS011;45863;50.336;3.536;2023-03-13T10:09:23;7.25;;;2.05;;
60006;SDS011;45863;50.336;3.536;2023-03-13T10:11:54;7.13;;;2.45;;
60006;SDS011;45863;50.336;3.536;2023-03-13T10:19:35;6.95;;;3.58;;
60006;SDS011;45863;50.336;3.536;2023-03-13T10:22:02;6.28;;;2.88;;
60006;SDS011;45863;50.336;3.536;2023-03-13T10:27:12;6.22;;;2.70;;
60006;SDS011;45863;50.336;3.536;2023-03-13T10:29:38;9.10;;;3.30;;
60006;SDS011;45863;50.336;3.536;2023-03-13T10:32:04;7.90;;;3.05;;
60006;SDS011;45863;50.336;3.536;2023-03-13T10:39:50;4.85;;;2.50;;
60006;SDS011;45863;50.336;3.536;2023-03-13T10:42:29;4.00;;;1.80;;
60006;SDS011;45863;50.336;3.536;2023-03-13T10:44:58;4.63;;;2.30;;
60006;SDS011;45863;50.336;3.536;2023-03-13T10:47:24;3.97;;;2.20;;
60006;SDS011;45863;50.336;3.536;2023-03-13T10:49:50;7.38;;;2.90;;
60006;SDS011;45863;50.336;3.536;2023-03-13T10:52:29;6.07;;;2.33;;
60006;SDS011;45863;50.336;3.536;2023-03-13T10:54:58;4.88;;;2.40;;
60006;SDS011;45863;50.336;3.536;2023-03-13T10:59:49;2.77;;;1.50;;
60006;SDS011;45863;50.336;3.536;2023-03-13T11:02:19;4.22;;;2.10;;
60006;SDS011;45863;50.336;3.536;2023-03-13T11:04:44;4.95;;;1.92;;
60006;SDS011;45863;50.336;3.536;2023-03-13T11:07:34;5.03;;;2.40;;
60006;SDS011;45863;50.336;3.536;2023-03-13T11:12:24;3.30;;;1.60;;
60006;SDS011;45863;50.336;3.536;2023-03-13T11:14:57;7.55;;;1.65;;
60006;SDS011;45863;50.336;3.536;2023-03-13T11:22:23;3.77;;;1.43;;
60006;SDS011;45863;50.336;3.536;2023-03-13T11:27:22;3.90;;;1.83;;
60006;SDS011;45863;50.336;3.536;2023-03-13T11:32:20;5.40;;;1.93;;
60006;SDS011;45863;50.336;3.536;2023-03-13T11:34:49;4.72;;;1.70;;
60006;SDS011;45863;50.336;3.536;2023-03-13T11:37:16;3.20;;;1.50;;
60006;SDS011;45863;50.336;3.536;2023-03-13T11:55:18;4.82;;;1.60;;
60006;SDS011;45863;50.336;3.536;2023-03-13T11:57:51;5.28;;;2.20;;
60006;SDS011;45863;50.336;3.536;2023-03-13T12:00:22;3.65;;;1.55;;
60006;SDS011;45863;50.336;3.536;2023-03-13T12:02:54;4.22;;;1.75;;
60006;SDS011;45863;50.336;3.536;2023-03-13T12:05:20;3.72;;;1.60;;
60006;SDS011;45863;50.336;3.536;2023-03-13T12:07:51;3.60;;;1.85;;
60006;SDS011;45863;50.336;3.536;2023-03-13T12:10:21;3.90;;;1.77;;
60006;SDS011;45863;50.336;3.536;2023-03-13T12:12:58;4.45;;;1.80;;
60006;SDS011;45863;50.336;3.536;2023-03-13T12:15:29;3.90;;;1.60;;
60006;SDS011;45863;50.336;3.536;2023-03-13T12:22:54;3.72;;;1.38;;
60006;SDS011;45863;50.336;3.536;2023-03-13T12:25:24;4.88;;;2.05;;
60006;SDS011;45863;50.336;3.536;2023-03-13T12:27:54;3.67;;;1.42;;
60006;SDS011;45863;50.336;3.536;2023-03-13T12:35:28;7.25;;;1.67;;
60006;SDS011;45863;50.336;3.536;2023-03-13T12:42:56;6.47;;;1.70;;
60006;SDS011;45863;50.336;3.536;2023-03-13T12:45:23;4.72;;;1.58;;
60006;SDS011;45863;50.336;3.536;2023-03-13T12:48:08;5.50;;;1.77;;
60006;SDS011;45863;50.336;3.536;2023-03-13T12:53:25;6.20;;;2.47;;
60006;SDS011;45863;50.336;3.536;2023-03-13T13:01:04;7.60;;;2.65;;
60006;SDS011;45863;50.336;3.536;2023-03-13T13:03:36;7.10;;;2.35;;
60006;SDS011;45863;50.336;3.536;2023-03-13T13:06:06;5.88;;;2.17;;
60006;SDS011;45863;50.336;3.536;2023-03-13T13:08:34;5.45;;;1.98;;
60006;SDS011;45863;50.336;3.536;2023-03-13T13:13:43;7.55;;;2.35;;
60006;SDS011;45863;50.336;3.536;2023-03-13T13:16:18;10.00;;;2.55;;
60006;SDS011;45863;50.336;3.536;2023-03-13T13:18:44;6.75;;;1.60;;
60006;SDS011;45863;50.336;3.536;2023-03-13T13:23:44;9.75;;;3.10;;
60006;SDS011;45863;50.336;3.536;2023-03-13T13:28:54;6.70;;;2.33;;
60006;SDS011;45863;50.336;3.536;2023-03-13T13:34:03;6.63;;;2.17;;
60006;SDS011;45863;50.336;3.536;2023-03-13T13:36:29;6.53;;;1.30;;
60006;SDS011;45863;50.336;3.536;2023-03-13T13:38:55;5.75;;;1.75;;
60006;SDS011;45863;50.336;3.536;2023-03-13T13:41:21;8.73;;;2.25;;
60006;SDS011;45863;50.336;3.536;2023-03-13T13:43:48;7.35;;;1.55;;
60006;SDS011;45863;50.336;3.536;2023-03-13T13:46:27;6.40;;;2.05;;
60006;SDS011;45863;50.336;3.536;2023-03-13T13:51:32;8.35;;;2.20;;
60006;SDS011;45863;50.336;3.536;2023-03-13T13:53:58;6.95;;;2.20;;
60006;SDS011;45863;50.336;3.536;2023-03-13T13:59:12;8.80;;;2.47;;
60006;SDS011;45863;50.336;3.536;2023-03-13T14:01:40;5.25;;;1.85;;
60006;SDS011;45863;50.336;3.536;2023-03-13T14:04:10;6.45;;;2.20;;
60006;SDS011;45863;50.336;3.536;2023-03-13T14:11:46;5.47;;;2.05;;
60006;SDS011;45863;50.336;3.536;2023-03-13T14:14:15;7.38;;;1.73;;
60006;SDS011;45863;50.336;3.536;2023-03-13T14:16:48;5.05;;;2.30;;
60006;SDS011;45863;50.336;3.536;2023-03-13T14:21:45;8.13;;;2.20;;
60006;SDS011;45863;50.336;3.536;2023-03-13T14:24:14;8.77;;;3.10;;
60006;SDS011;45863;50.336;3.536;2023-03-13T14:26:41;9.30;;;3.05;;
60006;SDS011;45863;50.336;3.536;2023-03-13T14:29:07;9.27;;;2.72;;
60006;SDS011;45863;50.336;3.536;2023-03-13T14:31:39;9.05;;;2.45;;
60006;SDS011;45863;50.336;3.536;2023-03-13T14:34:08;7.85;;;2.17;;
60006;SDS011;45863;50.336;3.536;2023-03-13T14:36:48;8.98;;;2.13;;
60006;SDS011;45863;50.336;3.536;2023-03-13T14:41:45;5.50;;;2.03;;
60006;SDS011;45863;50.336;3.536;2023-03-13T14:44:16;10.07;;;2.65;;
60006;SDS011;45863;50.336;3.536;2023-03-13T14:46:45;5.50;;;2.00;;
60006;SDS011;45863;50.336;3.536;2023-03-13T14:51:39;7.00;;;2.63;;
60006;SDS011;45863;50.336;3.536;2023-03-13T14:54:04;7.63;;;1.75;;
60006;SDS011;45863;50.336;3.536;2023-03-13T14:59:04;10.60;;;2.30;;
60006;SDS011;45863;50.336;3.536;2023-03-13T15:01:30;9.90;;;2.90;;
60006;SDS011;45863;50.336;3.536;2023-03-13T15:03:55;6.30;;;2.22;;
60006;SDS011;45863;50.336;3.536;2023-03-13T15:06:21;11.45;;;2.53;;
60006;SDS011;45863;50.336;3.536;2023-03-13T15:08:48;8.55;;;2.47;;
60006;SDS011;45863;50.336;3.536;2023-03-13T15:11:24;9.02;;;3.33;;
60006;SDS011;45863;50.336;3.536;2023-03-13T15:13:49;6.32;;;2.15;;
60006;SDS011;45863;50.336;3.536;2023-03-13T15:16:16;9.13;;;2.72;;
60006;SDS011;45863;50.336;3.536;2023-03-13T15:18:42;8.25;;;2.28;;
60006;SDS011;45863;50.336;3.536;2023-03-13T15:23:40;13.95;;;3.22;;
60006;SDS011;45863;50.336;3.536;2023-03-13T15:26:07;6.93;;;2.50;;
60006;SDS011;45863;50.336;3.536;2023-03-13T15:28:32;7.57;;;3.05;;
60006;SDS011;45863;50.336;3.536;2023-03-13T15:30:57;12.57;;;2.95;;
60006;SDS011;45863;50.336;3.536;2023-03-13T15:33:25;8.45;;;2.60;;
60006;SDS011;45863;50.336;3.536;2023-03-13T15:35:51;9.00;;;2.80;;
60006;SDS011;45863;50.336;3.536;2023-03-13T15:38:17;13.17;;;3.07;;
60006;SDS011;45863;50.336;3.536;2023-03-13T15:40:44;11.65;;;3.33;;
60006;SDS011;45863;50.336;3.536;2023-03-13T15:43:09;9.52;;;2.40;;
60006;SDS011;45863;50.336;3.536;2023-03-13T15:45:35;11.68;;;2.95;;
60006;SDS011;45863;50.336;3.536;2023-03-13T15:48:01;12.45;;;3.28;;
60006;SDS011;45863;50.336;3.536;2023-03-13T15:50:27;11.25;;;2.58;;
60006;SDS011;45863;50.336;3.536;2023-03-13T15:52:58;12.50;;;2.97;;
60006;SDS011;45863;50.336;3.536;2023-03-13T15:55:25;15.13;;;3.53;;
60006;SDS011;45863;50.336;3.536;2023-03-13T15:57:51;11.27;;;3.42;;
60006;SDS011;45863;50.336;3.536;2023-03-13T16:00:21;12.23;;;2.90;;
60006;SDS011;45863;50.336;3.536;2023-03-13T16:02:46;9.00;;;2.80;;
60006;SDS011;45863;50.336;3.536;2023-03-13T16:05:11;10.95;;;3.08;;
60006;SDS011;45863;50.336;3.536;2023-03-13T16:07:37;12.07;;;3.42;;
60006;SDS011;45863;50.336;3.536;2023-03-13T16:10:02;11.65;;;2.90;;
60006;SDS011;45863;50.336;3.536;2023-03-13T16:12:27;11.30;;;3.47;;
60006;SDS011;45863;50.336;3.536;2023-03-13T16:14:53;10.43;;;2.83;;
60006;SDS011;45863;50.336;3.536;2023-03-13T16:17:18;10.48;;;2.85;;
60006;SDS011;45863;50.336;3.536;2023-03-13T16:19:44;9.18;;;2.58;;
60006;SDS011;45863;50.336;3.536;2023-03-13T16:22:10;7.90;;;2.83;;
60006;SDS011;45863;50.336;3.536;2023-03-13T16:24:35;9.50;;;2.92;;
60006;SDS011;45863;50.336;3.536;2023-03-13T16:27:00;9.40;;;2.53;;
60006;SDS011;45863;50.336;3.536;2023-03-13T16:29:26;9.52;;;2.33;;
60006;SDS011;45863;50.336;3.536;2023-03-13T16:31:51;14.20;;;3.30;;
60006;SDS011;45863;50.336;3.536;2023-03-13T16:34:16;13.90;;;2.80;;
60006;SDS011;45863;50.336;3.536;2023-03-13T16:36:42;8.45;;;2.38;;